Time;durP1;ratioP1;P1;durP2;ratioP2;P2;SDS_P1;SDS_P2;PMS_P1;PMS_P2;Temp;Humidity;BMP_temperature;BMP_pressure;BME280_temperature;BME280_humidity;BME280_pressure;Samples;Min_cycle;Max_cycle;Signal;HPM_P1;HPM_P2
2022/03/14 00:00:47;;;;;;;3.73;2.53;;;;;;;;;;5094237;28;20207;-62
2022/03/14 00:03:13;;;;;;;3.00;2.40;;;;;;;;;;5076677;28;20237;-62
2022/03/14 00:05:40;;;;;;;2.73;2.37;;;;;;;;;;5096156;28;20238;-62
2022/03/14 00:08:06;;;;;;;3.40;2.20;;;;;;;;;;5096498;28;20219;-62
2022/03/14 00:10:34;;;;;;;3.80;2.80;;;;;;;;;;5095610;28;20185;-62
2022/03/14 00:13:00;;;;;;;4.70;2.47;;;;;;;;;;5096196;28;20200;-62
2022/03/14 00:15:32;;;;;;;4.10;2.53;;;;;;;;;;5096058;28;20659;-62
2022/03/14 00:18:00;;;;;;;3.27;2.97;;;;;;;;;;5075031;28;20201;-62
2022/03/14 00:20:26;;;;;;;7.10;2.63;;;;;;;;;;5093811;28;20648;-62
2022/03/14 00:22:52;;;;;;;2.77;2.47;;;;;;;;;;5075387;28;20188;-62
2022/03/14 00:25:18;;;;;;;2.87;2.50;;;;;;;;;;5075490;28;20181;-62
2022/03/14 00:27:44;;;;;;;3.23;2.90;;;;;;;;;;5093773;28;20333;-62
2022/03/14 00:30:11;;;;;;;3.37;2.50;;;;;;;;;;5093563;28;20181;-62
2022/03/14 00:32:37;;;;;;;3.13;2.83;;;;;;;;;;5093500;28;20200;-62
2022/03/14 00:35:04;;;;;;;3.83;2.47;;;;;;;;;;5075388;28;20188;-61
2022/03/14 00:37:31;;;;;;;2.77;2.47;;;;;;;;;;5075085;28;20193;-62
2022/03/14 00:39:57;;;;;;;2.73;2.47;;;;;;;;;;5075344;28;20177;-62
2022/03/14 00:42:23;;;;;;;2.43;2.23;;;;;;;;;;5093623;28;20177;-62
2022/03/14 00:44:50;;;;;;;2.43;2.23;;;;;;;;;;5075197;28;20185;-62
2022/03/14 00:47:16;;;;;;;3.93;2.70;;;;;;;;;;5075083;28;20732;-62
2022/03/14 00:49:43;;;;;;;2.50;2.30;;;;;;;;;;5093474;28;20246;-62
2022/03/14 00:52:10;;;;;;;3.50;2.47;;;;;;;;;;5075049;28;20221;-62
2022/03/14 00:54:36;;;;;;;2.97;2.50;;;;;;;;;;5075132;28;20183;-62
2022/03/14 00:57:02;;;;;;;3.40;2.97;;;;;;;;;;5074882;28;20185;-62
2022/03/14 00:59:28;;;;;;;2.90;2.37;;;;;;;;;;5074996;28;20234;-62
2022/03/14 01:01:54;;;;;;;3.40;2.90;;;;;;;;;;5093281;28;20256;-62
2022/03/14 01:04:20;;;;;;;3.13;2.80;;;;;;;;;;5074995;28;20272;-62
2022/03/14 01:06:46;;;;;;;3.27;2.90;;;;;;;;;;5074860;28;20205;-62
2022/03/14 01:09:14;;;;;;;5.37;2.80;;;;;;;;;;5093179;28;20239;-62
2022/03/14 01:11:40;;;;;;;5.90;2.90;;;;;;;;;;5074894;28;20181;-62
2022/03/14 01:14:06;;;;;;;3.23;2.93;;;;;;;;;;5074777;28;20216;-62
2022/03/14 01:16:32;;;;;;;3.30;2.90;;;;;;;;;;5093175;28;20219;-62
2022/03/14 01:18:59;;;;;;;3.40;3.03;;;;;;;;;;5074657;28;20292;-62
2022/03/14 01:21:25;;;;;;;2.80;2.60;;;;;;;;;;5093055;28;20174;-62
2022/03/14 01:23:51;;;;;;;3.33;2.63;;;;;;;;;;5092933;28;20188;-62
2022/03/14 01:26:17;;;;;;;3.00;2.70;;;;;;;;;;5092801;28;20179;-62
2022/03/14 01:28:43;;;;;;;4.03;3.13;;;;;;;;;;5076806;28;20212;-62
2022/03/14 01:31:09;;;;;;;3.33;2.93;;;;;;;;;;5097123;28;20180;-62
2022/03/14 01:33:35;;;;;;;4.17;3.20;;;;;;;;;;5078298;28;20611;-62
2022/03/14 01:36:01;;;;;;;4.33;3.60;;;;;;;;;;5096707;28;20624;-61
2022/03/14 01:38:27;;;;;;;3.57;2.80;;;;;;;;;;5078062;28;20201;-62
2022/03/14 01:40:53;;;;;;;4.23;3.30;;;;;;;;;;5078272;28;20184;-62
2022/03/14 01:43:21;;;;;;;2.97;2.60;;;;;;;;;;5097023;28;20181;-62
2022/03/14 01:45:47;;;;;;;3.67;3.20;;;;;;;;;;5097320;28;20177;-62
2022/03/14 01:48:13;;;;;;;4.10;3.40;;;;;;;;;;5098719;28;20200;-62
2022/03/14 01:50:39;;;;;;;5.43;3.40;;;;;;;;;;5102589;28;20232;-62
2022/03/14 01:53:06;;;;;;;4.57;2.97;;;;;;;;;;5099568;28;20201;-62
2022/03/14 01:55:32;;;;;;;4.70;3.70;;;;;;;;;;5096507;28;20181;-62
2022/03/14 01:57:59;;;;;;;7.17;3.10;;;;;;;;;;5095834;28;20210;-62
2022/03/14 02:00:25;;;;;;;5.17;3.80;;;;;;;;;;5077712;28;20218;-62
2022/03/14 02:02:51;;;;;;;5.03;3.00;;;;;;;;;;5095947;28;20644;-62
2022/03/14 02:05:19;;;;;;;3.90;3.53;;;;;;;;;;5095831;28;20184;-62
2022/03/14 02:07:45;;;;;;;3.80;3.37;;;;;;;;;;5095907;28;20572;-62
2022/03/14 02:10:11;;;;;;;3.53;3.23;;;;;;;;;;5095779;28;20658;-62
2022/03/14 02:12:37;;;;;;;3.80;3.07;;;;;;;;;;5077542;28;20212;-62
2022/03/14 02:15:03;;;;;;;4.97;3.20;;;;;;;;;;5077491;28;20177;-61
2022/03/14 02:17:29;;;;;;;4.00;3.50;;;;;;;;;;5095584;28;20193;-62
2022/03/14 02:19:58;;;;;;;4.87;2.90;;;;;;;;;;5095526;28;20230;-62
2022/03/14 02:22:24;;;;;;;4.17;3.53;;;;;;;;;;5095508;28;20189;-62
2022/03/14 02:24:50;;;;;;;3.47;2.90;;;;;;;;;;5095465;28;20320;-62
2022/03/14 02:27:17;;;;;;;4.07;3.57;;;;;;;;;;5095335;28;20197;-61
2022/03/14 02:29:43;;;;;;;5.77;4.17;;;;;;;;;;5095311;28;20177;-62
2022/03/14 02:32:11;;;;;;;3.80;3.40;;;;;;;;;;5095157;28;20177;-62
2022/03/14 02:34:37;;;;;;;4.50;3.57;;;;;;;;;;5095244;28;20620;-62
2022/03/14 02:37:04;;;;;;;6.57;3.50;;;;;;;;;;5077071;28;20210;-62
2022/03/14 02:39:32;;;;;;;3.93;3.60;;;;;;;;;;5094416;28;20197;-62
2022/03/14 02:41:57;;;;;;;4.53;3.87;;;;;;;;;;5095244;28;20192;-62
2022/03/14 02:44:23;;;;;;;8.77;4.10;;;;;;;;;;5095043;28;20640;-62
2022/03/14 02:46:50;;;;;;;6.17;4.50;;;;;;;;;;5077539;28;20177;-62
2022/03/14 02:49:16;;;;;;;8.90;5.23;;;;;;;;;;5076832;28;20173;-62
2022/03/14 02:51:42;;;;;;;5.57;5.03;;;;;;;;;;5094980;28;20364;-62
2022/03/14 02:54:09;;;;;;;6.13;5.10;;;;;;;;;;5094768;28;20193;-62
2022/03/14 02:56:39;;;;;;;7.47;5.50;;;;;;;;;;5094802;28;20652;-62
2022/03/14 02:59:06;;;;;;;6.10;5.50;;;;;;;;;;5076468;28;20699;-62
2022/03/14 03:01:32;;;;;;;6.33;5.47;;;;;;;;;;5076538;28;20181;-62
2022/03/14 03:03:58;;;;;;;9.40;5.77;;;;;;;;;;5076482;28;20611;-62
2022/03/14 03:06:24;;;;;;;8.57;5.83;;;;;;;;;;5076575;28;20181;-62
2022/03/14 03:08:50;;;;;;;8.23;6.27;;;;;;;;;;5094834;28;20569;-62
2022/03/14 03:11:17;;;;;;;8.07;6.20;;;;;;;;;;5094712;28;20173;-61
2022/03/14 03:13:43;;;;;;;8.80;6.40;;;;;;;;;;5094502;28;20201;-62
2022/03/14 03:16:10;;;;;;;7.33;6.17;;;;;;;;;;5094999;28;20625;-62
2022/03/14 03:18:36;;;;;;;9.40;6.40;;;;;;;;;;5076303;28;20204;-62
2022/03/14 03:21:02;;;;;;;7.30;6.40;;;;;;;;;;5094476;28;20183;-64
2022/03/14 03:23:29;;;;;;;11.47;7.20;;;;;;;;;;5094383;28;20284;-62
2022/03/14 03:25:55;;;;;;;10.43;7.00;;;;;;;;;;5094583;28;20542;-62
2022/03/14 03:28:21;;;;;;;8.97;6.87;;;;;;;;;;5094619;28;20197;-62
2022/03/14 03:30:47;;;;;;;10.97;7.40;;;;;;;;;;5094435;28;20220;-61
2022/03/14 03:33:14;;;;;;;11.03;7.43;;;;;;;;;;5094208;28;20201;-62
2022/03/14 03:35:40;;;;;;;11.73;8.17;;;;;;;;;;5094299;28;20177;-62
2022/03/14 03:38:05;;;;;;;13.53;8.00;;;;;;;;;;5094027;28;20672;-62
2022/03/14 03:40:31;;;;;;;15.87;9.00;;;;;;;;;;5075854;28;20212;-62
2022/03/14 03:42:57;;;;;;;12.43;8.10;;;;;;;;;;5094264;28;20177;-61
2022/03/14 03:45:23;;;;;;;11.90;8.27;;;;;;;;;;5094406;28;20173;-62
2022/03/14 03:47:49;;;;;;;12.87;8.50;;;;;;;;;;5094011;28;20680;-62
2022/03/14 03:50:16;;;;;;;13.20;9.40;;;;;;;;;;5093901;28;20184;-62
2022/03/14 03:52:42;;;;;;;12.83;9.73;;;;;;;;;;5075939;28;20212;-62
2022/03/14 03:55:09;;;;;;;15.67;11.33;;;;;;;;;;5093850;28;20252;-61
2022/03/14 03:57:35;;;;;;;13.83;10.90;;;;;;;;;;5075510;28;20224;-62
2022/03/14 04:00:01;;;;;;;14.67;10.67;;;;;;;;;;5093835;28;20510;-61
2022/03/14 04:02:27;;;;;;;13.27;10.13;;;;;;;;;;5093769;28;20173;-62
2022/03/14 04:04:53;;;;;;;12.33;9.43;;;;;;;;;;5093873;28;20666;-62
2022/03/14 04:07:23;;;;;;;14.00;10.03;;;;;;;;;;5093992;28;20548;-62
2022/03/14 04:09:55;;;;;;;14.90;10.40;;;;;;;;;;5075610;28;20185;-61
2022/03/14 04:12:23;;;;;;;15.27;10.73;;;;;;;;;;5093653;28;20189;-62
2022/03/14 04:14:49;;;;;;;13.97;11.10;;;;;;;;;;5075803;28;20637;-62
2022/03/14 04:17:15;;;;;;;15.40;11.83;;;;;;;;;;5075441;28;20633;-61
2022/03/14 04:19:41;;;;;;;16.83;11.70;;;;;;;;;;5093858;28;20187;-62
2022/03/14 04:22:07;;;;;;;17.50;12.93;;;;;;;;;;5093584;28;20251;-62
2022/03/14 04:24:35;;;;;;;16.37;12.47;;;;;;;;;;5094347;28;20169;-61
2022/03/14 04:27:01;;;;;;;18.77;13.53;;;;;;;;;;5116472;22;20161;-62
2022/03/14 04:29:28;;;;;;;15.90;12.07;;;;;;;;;;5093550;28;20638;-62
2022/03/14 04:31:54;;;;;;;16.57;11.27;;;;;;;;;;5075171;28;20173;-61
2022/03/14 04:34:20;;;;;;;14.53;10.53;;;;;;;;;;5093191;28;20213;-62
2022/03/14 04:36:50;;;;;;;12.90;11.07;;;;;;;;;;5093103;28;20180;-63
2022/03/14 04:39:16;;;;;;;12.17;10.23;;;;;;;;;;5075092;28;20632;-63
2022/03/14 04:41:43;;;;;;;14.93;10.90;;;;;;;;;;5093526;28;20188;-63
2022/03/14 04:44:09;;;;;;;14.03;10.57;;;;;;;;;;5075106;28;20180;-62
2022/03/14 04:46:35;;;;;;;15.60;10.50;;;;;;;;;;5093238;28;20173;-62
2022/03/14 04:49:04;;;;;;;13.03;10.47;;;;;;;;;;5093000;28;20192;-63
2022/03/14 04:51:30;;;;;;;12.83;9.87;;;;;;;;;;5074970;28;20183;-63
2022/03/14 04:53:56;;;;;;;12.03;10.73;;;;;;;;;;5093355;28;20683;-62
2022/03/14 04:56:22;;;;;;;14.43;10.73;;;;;;;;;;5093051;28;20273;-63
2022/03/14 04:58:48;;;;;;;12.57;11.03;;;;;;;;;;5093582;28;20676;-62
2022/03/14 05:01:14;;;;;;;13.00;10.60;;;;;;;;;;5093527;28;20626;-62
2022/03/14 05:03:40;;;;;;;14.10;10.77;;;;;;;;;;5076717;28;20180;-64
2022/03/14 05:06:06;;;;;;;12.10;10.57;;;;;;;;;;5096940;28;20201;-64
2022/03/14 05:08:32;;;;;;;11.20;9.27;;;;;;;;;;5097378;28;20224;-64
2022/03/14 05:10:58;;;;;;;11.67;9.33;;;;;;;;;;5078854;28;20539;-64
2022/03/14 05:13:25;;;;;;;10.10;8.10;;;;;;;;;;5078519;28;20201;-66
2022/03/14 05:15:51;;;;;;;12.60;9.10;;;;;;;;;;5078578;28;20322;-64
2022/03/14 05:18:17;;;;;;;9.17;8.17;;;;;;;;;;5078473;28;20687;-64
2022/03/14 05:20:43;;;;;;;8.40;7.60;;;;;;;;;;5097028;28;20177;-63
2022/03/14 05:23:09;;;;;;;10.37;8.17;;;;;;;;;;5078463;28;20185;-64
2022/03/14 05:25:35;;;;;;;8.10;6.67;;;;;;;;;;5097196;28;20177;-64
2022/03/14 05:28:01;;;;;;;10.13;7.07;;;;;;;;;;5096436;28;20220;-64
2022/03/14 05:30:27;;;;;;;8.53;7.30;;;;;;;;;;5096550;28;20187;-64
2022/03/14 05:32:53;;;;;;;10.73;7.43;;;;;;;;;;5096543;28;20236;-64
2022/03/14 05:35:19;;;;;;;9.87;7.90;;;;;;;;;;5078394;28;20207;-63
2022/03/14 05:37:46;;;;;;;8.43;7.30;;;;;;;;;;5078185;28;20208;-64
2022/03/14 05:40:15;;;;;;;10.30;7.40;;;;;;;;;;5078326;28;20181;-64
2022/03/14 05:42:41;;;;;;;10.50;7.80;;;;;;;;;;5078232;28;20230;-64
2022/03/14 05:45:08;;;;;;;9.60;8.17;;;;;;;;;;5096559;28;20197;-64
2022/03/14 05:47:35;;;;;;;8.40;7.40;;;;;;;;;;5096255;28;20743;-64
2022/03/14 05:50:01;;;;;;;8.47;7.10;;;;;;;;;;5096241;28;20173;-64
2022/03/14 05:52:27;;;;;;;11.47;7.20;;;;;;;;;;5095979;28;20201;-63
2022/03/14 05:54:54;;;;;;;9.37;6.70;;;;;;;;;;5078044;28;20184;-64
2022/03/14 05:57:20;;;;;;;9.43;6.80;;;;;;;;;;5096037;28;20200;-64
2022/03/14 05:59:46;;;;;;;10.23;7.53;;;;;;;;;;5096348;28;20169;-64
2022/03/14 06:02:12;;;;;;;10.63;7.20;;;;;;;;;;5078202;28;20174;-64
2022/03/14 06:04:39;;;;;;;10.23;7.30;;;;;;;;;;5096518;28;20184;-62
2022/03/14 06:07:06;;;;;;;8.10;6.40;;;;;;;;;;5096096;28;20670;-64
2022/03/14 06:09:32;;;;;;;8.90;6.30;;;;;;;;;;5095992;28;20246;-64
2022/03/14 06:11:58;;;;;;;7.47;6.23;;;;;;;;;;5096132;28;20173;-64
2022/03/14 06:14:24;;;;;;;12.50;6.13;;;;;;;;;;5095137;28;20219;-63
2022/03/14 06:16:50;;;;;;;7.53;5.60;;;;;;;;;;5077556;28;20177;-63
2022/03/14 06:19:15;;;;;;;6.77;5.90;;;;;;;;;;5096107;28;20183;-62
2022/03/14 06:21:41;;;;;;;6.80;5.43;;;;;;;;;;5078119;28;20213;-63
2022/03/14 06:24:09;;;;;;;7.13;6.17;;;;;;;;;;5095885;28;20177;-63
2022/03/14 06:26:35;;;;;;;6.10;5.50;;;;;;;;;;5095587;28;20181;-63
2022/03/14 06:29:01;;;;;;;7.37;6.23;;;;;;;;;;5095251;28;20239;-63
2022/03/14 06:31:27;;;;;;;7.83;5.67;;;;;;;;;;5095769;28;20176;-62
2022/03/14 06:33:53;;;;;;;6.87;6.17;;;;;;;;;;5095442;28;20687;-63
2022/03/14 06:36:19;;;;;;;7.93;6.13;;;;;;;;;;5095170;28;20215;-63
2022/03/14 06:38:45;;;;;;;7.20;5.70;;;;;;;;;;5076840;28;20203;-63
2022/03/14 06:41:12;;;;;;;7.97;6.00;;;;;;;;;;5095396;28;20177;-63
2022/03/14 06:43:38;;;;;;;8.67;6.43;;;;;;;;;;5094989;28;20169;-63
2022/03/14 06:46:05;;;;;;;7.93;6.70;;;;;;;;;;5095251;28;20192;-63
2022/03/14 06:48:31;;;;;;;8.30;6.63;;;;;;;;;;5076748;28;20689;-62
2022/03/14 06:50:57;;;;;;;8.33;7.30;;;;;;;;;;5094820;28;20199;-63
2022/03/14 06:53:23;;;;;;;8.80;6.73;;;;;;;;;;5076634;28;20739;-63
2022/03/14 06:55:49;;;;;;;7.97;7.17;;;;;;;;;;5076576;28;20184;-63
2022/03/14 06:58:15;;;;;;;9.73;7.37;;;;;;;;;;5094634;28;20193;-63
2022/03/14 07:00:41;;;;;;;12.77;9.03;;;;;;;;;;5094700;28;20662;-63
2022/03/14 07:03:07;;;;;;;44.77;25.77;;;;;;;;;;5094842;28;20181;-64
2022/03/14 07:05:33;;;;;;;38.00;24.40;;;;;;;;;;5076440;28;20181;-63
2022/03/14 07:07:58;;;;;;;18.87;12.37;;;;;;;;;;5076331;28;20196;-63
2022/03/14 07:10:24;;;;;;;12.50;8.90;;;;;;;;;;5094732;28;20188;-63
2022/03/14 07:12:50;;;;;;;12.47;10.00;;;;;;;;;;5094302;28;20201;-64
2022/03/14 07:15:19;;;;;;;13.63;11.97;;;;;;;;;;5076279;28;20177;-63
2022/03/14 07:17:45;;;;;;;11.10;8.57;;;;;;;;;;5076423;28;20253;-62
2022/03/14 07:20:12;;;;;;;16.23;10.27;;;;;;;;;;5094432;28;20169;-62
2022/03/14 07:22:48;;;;;;;12.70;10.60;;;;;;;;;;5076100;28;20539;-65
2022/03/14 07:25:14;;;;;;;12.83;9.23;;;;;;;;;;5094321;28;20161;-61
2022/03/14 07:27:40;;;;;;;11.63;8.73;;;;;;;;;;5093787;28;20231;-62
2022/03/14 07:30:06;;;;;;;10.40;9.10;;;;;;;;;;5076036;28;20220;-63
2022/03/14 07:32:32;;;;;;;13.77;9.00;;;;;;;;;;5075882;28;20205;-64
2022/03/14 07:34:58;;;;;;;14.43;9.13;;;;;;;;;;5094047;28;20208;-64
2022/03/14 07:37:24;;;;;;;14.23;8.80;;;;;;;;;;5075872;28;20676;-64
2022/03/14 07:39:50;;;;;;;21.90;9.90;;;;;;;;;;5093902;28;20179;-64
2022/03/14 07:42:16;;;;;;;12.20;8.40;;;;;;;;;;5075833;28;20177;-63
2022/03/14 07:44:42;;;;;;;11.83;8.33;;;;;;;;;;5075714;28;20181;-65
2022/03/14 07:47:10;;;;;;;12.30;8.83;;;;;;;;;;5093795;28;20202;-63
2022/03/14 07:49:36;;;;;;;11.43;9.27;;;;;;;;;;5093838;28;20173;-64
2022/03/14 07:52:03;;;;;;;12.23;8.67;;;;;;;;;;5093737;28;20209;-64
2022/03/14 07:54:29;;;;;;;12.00;8.67;;;;;;;;;;5093586;28;20257;-64
2022/03/14 07:56:55;;;;;;;9.97;8.50;;;;;;;;;;5093809;28;20725;-64
2022/03/14 07:59:21;;;;;;;9.97;8.30;;;;;;;;;;5093691;28;20180;-62
2022/03/14 08:01:47;;;;;;;12.33;9.17;;;;;;;;;;5093890;28;20238;-63
2022/03/14 08:04:13;;;;;;;13.00;8.50;;;;;;;;;;5093548;28;20173;-63
2022/03/14 08:06:41;;;;;;;13.43;8.10;;;;;;;;;;5093529;28;20177;-63
2022/03/14 08:09:08;;;;;;;13.33;8.23;;;;;;;;;;5093491;28;20694;-63
2022/03/14 08:11:35;;;;;;;11.90;8.13;;;;;;;;;;5075352;28;20181;-63
2022/03/14 08:14:01;;;;;;;8.90;8.00;;;;;;;;;;5093906;28;20204;-62
2022/03/14 08:16:27;;;;;;;13.23;7.97;;;;;;;;;;5075657;28;20593;-63
2022/03/14 08:18:53;;;;;;;13.83;7.70;;;;;;;;;;5093512;28;20197;-63
2022/03/14 08:21:19;;;;;;;12.33;7.97;;;;;;;;;;5093770;28;20170;-63
2022/03/14 08:23:48;;;;;;;10.00;7.80;;;;;;;;;;5075341;28;20189;-63
2022/03/14 08:26:15;;;;;;;9.83;7.63;;;;;;;;;;5075346;28;20181;-63
2022/03/14 08:28:42;;;;;;;12.80;7.80;;;;;;;;;;5075496;28;20228;-63
2022/03/14 08:31:08;;;;;;;8.43;6.97;;;;;;;;;;5093547;28;20169;-64
2022/03/14 08:33:39;;;;;;;11.50;7.20;;;;;;;;;;5075210;28;20258;-63
2022/03/14 08:36:06;;;;;;;11.07;8.63;;;;;;;;;;5075298;28;20605;-63
2022/03/14 08:38:31;;;;;;;12.50;7.73;;;;;;;;;;5077280;28;20207;-63
2022/03/14 08:40:57;;;;;;;14.00;8.07;;;;;;;;;;5079384;28;20315;-65
2022/03/14 08:43:24;;;;;;;12.13;7.60;;;;;;;;;;5079315;28;20181;-64
2022/03/14 08:45:50;;;;;;;9.17;7.07;;;;;;;;;;5097418;28;20252;-64
2022/03/14 08:48:16;;;;;;;10.73;7.73;;;;;;;;;;5078981;28;20227;-63
2022/03/14 08:50:42;;;;;;;9.30;6.97;;;;;;;;;;5079120;28;20561;-63
2022/03/14 08:53:08;;;;;;;12.70;8.00;;;;;;;;;;5097608;28;20204;-64
2022/03/14 08:55:35;;;;;;;11.23;7.50;;;;;;;;;;5097135;28;20303;-63
2022/03/14 08:58:02;;;;;;;13.03;7.97;;;;;;;;;;5078896;28;20205;-63
2022/03/14 09:00:29;;;;;;;12.40;7.07;;;;;;;;;;5097638;28;20169;-63
2022/03/14 09:02:55;;;;;;;11.20;6.90;;;;;;;;;;5097012;28;20177;-63
2022/03/14 09:05:21;;;;;;;8.53;6.23;;;;;;;;;;5078691;28;20200;-64
2022/03/14 09:07:47;;;;;;;12.47;7.40;;;;;;;;;;5078678;28;20205;-63
2022/03/14 09:10:15;;;;;;;11.90;7.13;;;;;;;;;;5097488;28;20174;-63
2022/03/14 09:12:44;;;;;;;9.40;6.93;;;;;;;;;;5078661;28;20300;-63
2022/03/14 09:15:11;;;;;;;12.13;6.80;;;;;;;;;;5078620;28;20644;-63
2022/03/14 09:17:46;;;;;;;11.97;6.93;;;;;;;;;;5096638;28;20193;-63
2022/03/14 09:20:13;;;;;;;11.77;6.40;;;;;;;;;;5096635;28;20176;-64
2022/03/14 09:22:42;;;;;;;15.60;6.40;;;;;;;;;;5097148;28;20624;-63
2022/03/14 09:25:09;;;;;;;8.37;6.27;;;;;;;;;;5096868;28;20177;-63
2022/03/14 09:27:35;;;;;;;9.57;5.90;;;;;;;;;;5096437;28;20216;-63
2022/03/14 09:30:01;;;;;;;10.27;5.30;;;;;;;;;;5078373;28;20191;-63
2022/03/14 09:32:27;;;;;;;8.10;5.40;;;;;;;;;;5096681;28;20264;-63
2022/03/14 09:34:53;;;;;;;8.23;5.00;;;;;;;;;;5078180;28;20185;-63
2022/03/14 09:37:19;;;;;;;11.23;5.60;;;;;;;;;;5096346;28;20323;-63
2022/03/14 09:39:45;;;;;;;10.07;5.70;;;;;;;;;;5078117;28;20681;-63
2022/03/14 09:42:12;;;;;;;9.30;5.80;;;;;;;;;;5096407;28;20173;-63
2022/03/14 09:44:40;;;;;;;8.03;5.47;;;;;;;;;;5096136;28;20548;-63
2022/03/14 09:47:06;;;;;;;8.97;5.67;;;;;;;;;;5096148;28;20675;-63
2022/03/14 09:49:34;;;;;;;12.73;6.13;;;;;;;;;;5078101;28;20179;-62
2022/03/14 09:52:01;;;;;;;8.37;5.30;;;;;;;;;;5096417;28;20173;-63
2022/03/14 09:54:27;;;;;;;7.97;5.90;;;;;;;;;;5095973;28;20204;-62
2022/03/14 09:56:57;;;;;;;7.43;5.87;;;;;;;;;;5077710;28;20181;-63
2022/03/14 09:59:23;;;;;;;11.60;6.07;;;;;;;;;;5077794;28;20252;-63
2022/03/14 10:01:49;;;;;;;8.17;5.20;;;;;;;;;;5095805;28;20223;-62
2022/03/14 10:04:15;;;;;;;9.97;5.80;;;;;;;;;;5095874;28;20676;-63
2022/03/14 10:06:41;;;;;;;10.30;5.70;;;;;;;;;;5077888;28;20188;-63
2022/03/14 10:09:08;;;;;;;6.60;5.23;;;;;;;;;;5095654;28;20220;-63
2022/03/14 10:11:34;;;;;;;8.87;5.73;;;;;;;;;;5077570;28;20234;-62
2022/03/14 10:14:02;;;;;;;9.73;5.97;;;;;;;;;;5077547;28;20211;-63
2022/03/14 10:16:28;;;;;;;10.80;5.13;;;;;;;;;;5077380;28;20215;-63
2022/03/14 10:19:07;;;;;;;10.27;5.23;;;;;;;;;;5095552;28;20225;-63
2022/03/14 10:21:42;;;;;;;11.83;5.20;;;;;;;;;;5077285;28;20315;-63
2022/03/14 10:24:12;;;;;;;10.10;5.27;;;;;;;;;;5077363;28;20181;-63
2022/03/14 10:26:42;;;;;;;8.57;5.30;;;;;;;;;;5077215;28;20185;-63
2022/03/14 10:29:14;;;;;;;12.40;5.20;;;;;;;;;;5077063;28;20273;-63
2022/03/14 10:31:45;;;;;;;9.97;5.23;;;;;;;;;;5077234;28;20174;-63
2022/03/14 10:34:13;;;;;;;10.63;5.23;;;;;;;;;;5095234;28;20245;-62
2022/03/14 10:36:45;;;;;;;8.27;4.90;;;;;;;;;;5077054;28;20185;-64
2022/03/14 10:39:15;;;;;;;9.17;5.23;;;;;;;;;;5077066;28;20173;-63
2022/03/14 10:41:41;;;;;;;8.67;5.10;;;;;;;;;;5095132;28;20184;-63
2022/03/14 10:44:08;;;;;;;10.90;5.10;;;;;;;;;;5116805;22;20236;-61
2022/03/14 10:46:39;;;;;;;9.60;5.23;;;;;;;;;;5035582;28;20276;-61
2022/03/14 10:49:09;;;;;;;7.53;4.70;;;;;;;;;;5035740;28;20166;-62
2022/03/14 10:51:50;;;;;;;8.40;4.70;;;;;;;;;;5035528;28;20178;-62
2022/03/14 10:54:17;;;;;;;11.23;5.40;;;;;;;;;;5035000;28;20222;-61
2022/03/14 10:56:59;;;;;;;8.97;5.27;;;;;;;;;;5017461;28;20635;-63
2022/03/14 10:59:34;;;;;;;8.97;5.17;;;;;;;;;;5017364;28;20190;-62
2022/03/14 11:02:01;;;;;;;14.90;6.07;;;;;;;;;;5034409;28;20175;-61
2022/03/14 11:04:27;;;;;;;9.87;4.80;;;;;;;;;;5035513;28;20670;-62
2022/03/14 11:07:02;;;;;;;11.53;5.43;;;;;;;;;;5039902;28;20175;-62
2022/03/14 11:09:38;;;;;;;9.70;5.57;;;;;;;;;;5038849;28;20179;-62
2022/03/14 11:12:08;;;;;;;9.47;5.00;;;;;;;;;;5039553;28;20179;-62
2022/03/14 11:14:34;;;;;;;6.53;4.57;;;;;;;;;;5038382;28;20709;-62
2022/03/14 11:17:30;;;;;;;8.17;5.07;;;;;;;;;;5017380;28;20654;-64
2022/03/14 11:19:58;;;;;;;8.93;4.80;;;;;;;;;;5026621;28;20195;-61
2022/03/14 11:22:26;;;;;;;10.57;5.60;;;;;;;;;;5034842;28;20180;-61
2022/03/14 11:24:52;;;;;;;6.53;4.93;;;;;;;;;;5016971;28;20266;-62
2022/03/14 11:27:22;;;;;;;6.83;4.67;;;;;;;;;;5034870;28;20262;-62
2022/03/14 11:29:49;;;;;;;11.33;5.53;;;;;;;;;;5035022;28;20183;-61
2022/03/14 11:32:17;;;;;;;7.67;5.23;;;;;;;;;;5034352;28;20175;-61
2022/03/14 11:34:43;;;;;;;5.97;4.27;;;;;;;;;;5016609;28;20287;-61
2022/03/14 11:37:10;;;;;;;12.20;5.80;;;;;;;;;;5016747;28;20183;-61
2022/03/14 11:39:36;;;;;;;8.70;4.90;;;;;;;;;;5016635;28;20236;-61
2022/03/14 11:42:02;;;;;;;7.27;5.60;;;;;;;;;;5034255;28;20187;-61
2022/03/14 11:44:29;;;;;;;11.17;5.90;;;;;;;;;;5034135;28;20337;-62
2022/03/14 11:46:56;;;;;;;15.10;6.73;;;;;;;;;;5039282;28;20189;-62
2022/03/14 11:49:23;;;;;;;10.07;7.40;;;;;;;;;;5021260;28;20639;-62
2022/03/14 11:51:49;;;;;;;6.73;4.87;;;;;;;;;;5035169;28;20190;-63
2022/03/14 11:54:16;;;;;;;8.33;4.67;;;;;;;;;;5034324;28;20219;-61
2022/03/14 11:56:54;;;;;;;8.00;4.90;;;;;;;;;;5034588;28;20654;-62
2022/03/14 11:59:31;;;;;;;8.43;4.63;;;;;;;;;;5033991;28;20242;-61
2022/03/14 12:01:58;;;;;;;11.73;6.03;;;;;;;;;;5037169;28;20163;-62
2022/03/14 12:04:32;;;;;;;9.20;6.23;;;;;;;;;;5017783;28;20209;-61
2022/03/14 12:06:58;;;;;;;8.40;5.50;;;;;;;;;;5033898;28;20269;-61
2022/03/14 12:09:27;;;;;;;8.40;4.93;;;;;;;;;;5033760;28;20643;-62
2022/03/14 12:11:53;;;;;;;10.97;5.70;;;;;;;;;;5033300;28;20186;-61
2022/03/14 12:14:38;;;;;;;8.83;5.53;;;;;;;;;;5033367;28;20214;-62
2022/03/14 12:17:22;;;;;;;9.97;6.00;;;;;;;;;;5033974;28;20198;-62
2022/03/14 12:19:48;;;;;;;8.40;5.40;;;;;;;;;;5033981;28;20160;-62
2022/03/14 12:22:38;;;;;;;10.13;5.60;;;;;;;;;;5033805;28;20186;-62
2022/03/14 12:25:05;;;;;;;7.50;5.10;;;;;;;;;;5034113;28;20213;-62
2022/03/14 12:27:41;;;;;;;10.17;5.70;;;;;;;;;;5033689;28;20179;-63
2022/03/14 12:30:27;;;;;;;6.60;4.47;;;;;;;;;;5015733;28;20208;-62
2022/03/14 12:32:54;;;;;;;6.73;4.93;;;;;;;;;;5015657;28;20206;-62
2022/03/14 12:35:24;;;;;;;10.10;4.73;;;;;;;;;;5033266;28;20198;-62
2022/03/14 12:37:52;;;;;;;9.83;5.10;;;;;;;;;;5033717;28;20167;-62
2022/03/14 12:40:21;;;;;;;6.93;4.90;;;;;;;;;;5015603;28;20222;-62
2022/03/14 12:42:48;;;;;;;9.83;4.97;;;;;;;;;;5015716;28;20635;-62
2022/03/14 12:45:22;;;;;;;11.60;5.03;;;;;;;;;;5015350;28;20331;-61
2022/03/14 12:47:52;;;;;;;7.53;4.50;;;;;;;;;;5015514;28;20187;-62
2022/03/14 12:50:36;;;;;;;6.37;3.93;;;;;;;;;;5033353;28;20187;-62
2022/03/14 12:53:02;;;;;;;10.57;5.10;;;;;;;;;;5033647;28;20238;-61
2022/03/14 12:55:28;;;;;;;6.47;4.57;;;;;;;;;;5033027;28;20207;-62
2022/03/14 12:57:55;;;;;;;6.90;5.00;;;;;;;;;;5015662;28;20189;-62
2022/03/14 13:00:21;;;;;;;8.10;4.70;;;;;;;;;;5034038;28;20180;-61
2022/03/14 13:02:47;;;;;;;9.00;4.43;;;;;;;;;;5018320;28;20175;-63
2022/03/14 13:05:18;;;;;;;5.57;4.60;;;;;;;;;;5033151;28;20282;-63
2022/03/14 13:07:44;;;;;;;9.17;4.57;;;;;;;;;;5033170;28;20156;-63
2022/03/14 13:10:10;;;;;;;5.83;5.03;;;;;;;;;;5032987;28;20730;-63
2022/03/14 13:12:36;;;;;;;5.27;4.50;;;;;;;;;;5033016;28;20176;-63
2022/03/14 13:15:12;;;;;;;10.53;5.53;;;;;;;;;;5032818;28;20253;-62
2022/03/14 13:17:45;;;;;;;8.27;4.80;;;;;;;;;;5032978;28;20534;-63
2022/03/14 13:20:25;;;;;;;5.67;4.80;;;;;;;;;;5015138;28;20182;-63
2022/03/14 13:22:51;;;;;;;9.13;4.63;;;;;;;;;;5032811;28;20188;-63
2022/03/14 13:25:29;;;;;;;7.47;4.63;;;;;;;;;;5035662;28;20227;-63
2022/03/14 13:27:55;;;;;;;7.93;5.17;;;;;;;;;;5036507;28;20182;-63
2022/03/14 13:30:21;;;;;;;6.70;5.87;;;;;;;;;;5036534;28;20187;-63
2022/03/14 13:32:47;;;;;;;6.67;5.67;;;;;;;;;;5036418;28;20202;-63
2022/03/14 13:35:14;;;;;;;5.33;4.70;;;;;;;;;;5018648;28;20619;-63
2022/03/14 13:37:42;;;;;;;7.00;4.77;;;;;;;;;;5019028;28;20207;-63
2022/03/14 13:40:21;;;;;;;12.43;5.40;;;;;;;;;;5018769;28;20215;-63
2022/03/14 13:42:48;;;;;;;11.80;6.80;;;;;;;;;;5036345;28;20557;-63
2022/03/14 13:45:14;;;;;;;13.07;5.67;;;;;;;;;;5036223;28;20218;-63
2022/03/14 13:47:40;;;;;;;12.43;8.80;;;;;;;;;;5036557;28;20189;-63
2022/03/14 13:50:06;;;;;;;7.63;5.23;;;;;;;;;;5018410;28;20183;-63
2022/03/14 13:52:32;;;;;;;7.83;5.77;;;;;;;;;;5018280;28;20655;-63
2022/03/14 13:54:59;;;;;;;9.50;6.10;;;;;;;;;;5036158;28;20286;-62
2022/03/14 13:57:25;;;;;;;8.27;5.93;;;;;;;;;;5036037;28;20183;-63
2022/03/14 13:59:51;;;;;;;8.70;6.37;;;;;;;;;;5018253;28;20537;-63
2022/03/14 14:02:22;;;;;;;5.97;5.30;;;;;;;;;;5036312;28;20224;-63
2022/03/14 14:04:51;;;;;;;7.13;4.90;;;;;;;;;;5035835;28;20586;-63
2022/03/14 14:07:17;;;;;;;7.67;5.70;;;;;;;;;;5036025;28;20550;-63
2022/03/14 14:09:44;;;;;;;7.73;4.90;;;;;;;;;;5036154;28;20179;-63
2022/03/14 14:12:10;;;;;;;11.80;5.20;;;;;;;;;;5018177;28;20568;-62
2022/03/14 14:14:37;;;;;;;16.07;11.93;;;;;;;;;;5037916;28;20218;-63
2022/03/14 14:17:14;;;;;;;7.37;5.77;;;;;;;;;;5035926;28;20215;-62
2022/03/14 14:20:00;;;;;;;8.93;6.00;;;;;;;;;;5036061;28;20277;-63
2022/03/14 14:22:32;;;;;;;9.07;5.90;;;;;;;;;;5035665;28;20171;-63
2022/03/14 14:24:59;;;;;;;14.97;7.90;;;;;;;;;;5036278;28;20203;-63
2022/03/14 14:27:26;;;;;;;6.83;6.13;;;;;;;;;;5037545;28;20254;-64
2022/03/14 14:30:00;;;;;;;16.03;9.87;;;;;;;;;;5018526;28;20270;-63
2022/03/14 14:32:26;;;;;;;9.03;6.43;;;;;;;;;;5037365;28;20166;-63
2022/03/14 14:34:54;;;;;;;6.23;5.63;;;;;;;;;;5018792;28;20191;-63
2022/03/14 14:37:21;;;;;;;7.10;5.67;;;;;;;;;;5035012;28;20167;-63